createdAt,value
2019-05-18T00:00:25.285Z,69.33
2019-05-18T00:03:01.127Z,69.43
2019-05-18T00:05:35.121Z,69.52
2019-05-18T00:08:08.292Z,69.26
2019-05-18T00:10:41.695Z,66.96
2019-05-18T00:13:14.605Z,66.45
2019-05-18T00:15:47.147Z,69.21
2019-05-18T00:18:20.247Z,66.41
2019-05-18T00:20:52.949Z,65.60
2019-05-18T00:23:25.457Z,65.81
2019-05-18T00:25:58.319Z,63.96
2019-05-18T00:28:30.930Z,63.69
2019-05-18T00:31:04.185Z,63.65
2019-05-18T00:33:41.515Z,63.63
2019-05-18T00:36:14.391Z,63.34
2019-05-18T00:38:47.100Z,63.05
2019-05-18T00:41:19.522Z,62.37
2019-05-18T00:43:52.901Z,62.43
2019-05-18T00:46:25.682Z,63.28
2019-05-18T00:48:59.146Z,63.10
2019-05-18T00:51:39.313Z,62.70
2019-05-18T00:54:11.807Z,62.87
2019-05-18T00:56:44.478Z,62.27
2019-05-18T00:59:19.921Z,63.97
2019-05-18T01:01:52.192Z,63.48
2019-05-18T01:04:31.085Z,63.05
2019-05-18T01:07:03.666Z,61.84
2019-05-18T01:09:36.354Z,61.37
2019-05-18T01:12:08.559Z,60.86
2019-05-18T01:14:42.696Z,61.25
2019-05-18T01:17:16.158Z,59.95
2019-05-18T01:19:47.743Z,60.68
2019-05-18T01:22:20.513Z,61.24
2019-05-18T01:24:55.813Z,60.85
2019-05-18T01:27:28.305Z,61.19
2019-05-18T01:30:01.709Z,61.05
2019-05-18T01:32:33.873Z,59.02
2019-05-18T01:35:09.733Z,60.13
2019-05-18T01:37:41.587Z,59.15
2019-05-18T01:40:14.947Z,58.70
2019-05-18T01:42:47.882Z,60.02
2019-05-18T01:45:21.259Z,59.09
2019-05-18T01:47:55.117Z,59.04
2019-05-18T01:50:26.883Z,59.19
2019-05-18T01:52:59.570Z,58.23
2019-05-18T01:55:35.230Z,59.53
2019-05-18T01:58:08.391Z,58.28
2019-05-18T02:00:40.772Z,57.82
2019-05-18T02:03:14.632Z,58.84
2019-05-18T02:05:46.377Z,58.87
2019-05-18T02:08:23.181Z,58.30
2019-05-18T02:10:54.684Z,57.83
2019-05-18T02:13:30.615Z,57.73
2019-05-18T02:16:02.930Z,56.66
2019-05-18T02:18:35.217Z,56.92
2019-05-18T02:21:07.520Z,55.86
2019-05-18T02:23:39.213Z,56.99
2019-05-18T02:26:14.829Z,57.40
2019-05-18T02:28:47.201Z,56.79
2019-05-18T02:31:19.496Z,56.13
2019-05-18T02:33:52.379Z,56.08
2019-05-18T02:36:24.620Z,56.42
2019-05-18T02:38:56.687Z,56.59
2019-05-18T02:41:29.786Z,57.05
2019-05-18T02:44:02.220Z,56.24
2019-05-18T02:46:34.788Z,56.44
2019-05-18T02:49:07.715Z,56.02
2019-05-18T02:51:40.165Z,55.32
2019-05-18T02:54:12.499Z,55.87
2019-05-18T02:56:46.261Z,56.28
2019-05-18T02:59:19.819Z,55.76
2019-05-18T03:01:53.799Z,54.50
2019-05-18T03:04:26.751Z,54.64
2019-05-18T03:07:00.208Z,55.14
2019-05-18T03:09:32.114Z,56.12
2019-05-18T03:12:05.422Z,55.26
2019-05-18T03:14:37.480Z,54.55
2019-05-18T03:17:11.203Z,53.80
2019-05-18T03:19:44.319Z,54.53
2019-05-18T03:22:17.357Z,55.22
2019-05-18T03:24:50.059Z,55.20
2019-05-18T03:27:22.354Z,55.63
2019-05-18T03:29:55.849Z,56.22
2019-05-18T03:32:28.982Z,56.39
2019-05-18T03:35:01.903Z,56.18
2019-05-18T03:37:34.523Z,55.98
2019-05-18T03:40:08.312Z,56.75
2019-05-18T03:42:41.219Z,56.37
2019-05-18T03:45:13.226Z,56.36
2019-05-18T03:47:45.827Z,56.37
2019-05-18T03:50:18.532Z,56.40
2019-05-18T03:52:51.795Z,56.94
2019-05-18T03:55:24.552Z,57.20
2019-05-18T03:57:56.951Z,57.12
2019-05-18T04:00:30.254Z,56.89
2019-05-18T04:03:03.174Z,56.07
2019-05-18T04:05:35.876Z,56.25
2019-05-18T04:08:08.787Z,56.51
2019-05-18T04:10:41.289Z,56.36
2019-05-18T04:13:14.190Z,56.62
2019-05-18T04:15:49.634Z,56.24
2019-05-18T04:18:21.962Z,55.96
2019-05-18T04:20:54.274Z,55.26
2019-05-18T04:23:26.718Z,56.14
2019-05-18T04:26:00.050Z,55.79
2019-05-18T04:28:32.918Z,56.64
2019-05-18T04:31:05.565Z,56.54
2019-05-18T04:33:38.103Z,56.11
2019-05-18T04:36:10.948Z,55.81
2019-05-18T04:38:43.459Z,55.29
2019-05-18T04:41:16.039Z,56.24
2019-05-18T04:43:48.402Z,54.29
2019-05-18T04:46:21.116Z,54.33
2019-05-18T04:48:54.251Z,54.24
2019-05-18T04:51:29.199Z,55.46
2019-05-18T04:54:01.745Z,55.21
2019-05-18T04:56:34.800Z,55.07
2019-05-18T04:59:07.393Z,55.56
2019-05-18T05:01:39.943Z,55.54
2019-05-18T05:04:12.000Z,55.37
2019-05-18T05:06:43.910Z,54.71
2019-05-18T05:09:20.026Z,54.66
2019-05-18T05:11:53.194Z,55.12
2019-05-18T05:14:29.445Z,54.48
2019-05-18T05:17:02.243Z,54.36
2019-05-18T05:19:35.531Z,54.06
2019-05-18T05:22:12.226Z,54.69
2019-05-18T05:24:48.163Z,55.11
2019-05-18T05:27:21.016Z,54.29
2019-05-18T05:29:53.605Z,54.38
2019-05-18T05:32:26.917Z,54.20
2019-05-18T05:35:00.582Z,54.32
2019-05-18T05:37:43.808Z,54.63
2019-05-18T05:40:17.328Z,56.33
2019-05-18T05:42:50.935Z,54.76
2019-05-18T05:45:24.172Z,54.95
2019-05-18T05:47:56.932Z,54.38
2019-05-18T05:50:36.095Z,54.67
2019-05-18T05:53:06.795Z,54.90
2019-05-18T05:55:39.165Z,54.76
2019-05-18T05:58:14.589Z,54.95
2019-05-18T06:00:47.742Z,55.21
2019-05-18T06:03:21.216Z,54.88
2019-05-18T06:05:53.582Z,55.33
2019-05-18T06:08:26.130Z,55.05
2019-05-18T06:10:58.703Z,55.62
2019-05-18T06:13:31.206Z,56.00
2019-05-18T06:16:04.253Z,56.25
2019-05-18T06:18:37.851Z,55.41
2019-05-18T06:21:10.938Z,55.36
2019-05-18T06:24:51.842Z,54.63
2019-05-18T06:27:26.283Z,54.65
2019-05-18T06:29:59.045Z,55.21
2019-05-18T06:32:32.119Z,55.69
2019-05-18T06:35:04.664Z,55.54
2019-05-18T06:37:38.867Z,55.24
2019-05-18T06:40:11.935Z,55.47
2019-05-18T06:42:44.756Z,55.32
2019-05-18T06:45:17.935Z,55.10
2019-05-18T06:47:52.384Z,55.30
2019-05-18T06:50:27.702Z,55.17
2019-05-18T06:53:00.486Z,54.92
2019-05-18T06:55:34.204Z,55.05
2019-05-18T06:58:13.106Z,54.90
2019-05-18T07:00:45.775Z,54.55
2019-05-18T07:03:21.128Z,54.79
2019-05-18T07:05:55.528Z,54.58
2019-05-18T07:08:36.246Z,54.88
2019-05-18T07:11:09.424Z,54.79
2019-05-18T07:13:42.014Z,54.65
2019-05-18T07:16:14.973Z,54.76
2019-05-18T07:18:48.318Z,54.07
2019-05-18T07:21:24.550Z,54.26
2019-05-18T07:24:05.097Z,54.06
2019-05-18T07:26:38.017Z,54.15
2019-05-18T07:29:10.559Z,53.88
2019-05-18T07:31:43.105Z,53.24
2019-05-18T07:34:15.815Z,53.54
2019-05-18T07:36:48.747Z,53.35
2019-05-18T07:39:20.795Z,53.16
2019-05-18T07:41:53.714Z,52.17
2019-05-18T07:44:34.136Z,51.97
2019-05-18T07:47:07.249Z,51.41
2019-05-18T07:49:40.171Z,51.19
2019-05-18T07:52:12.779Z,50.95
2019-05-18T07:54:50.953Z,51.00
2019-05-18T07:57:23.638Z,51.66
2019-05-18T07:59:55.783Z,51.27
2019-05-18T08:02:28.845Z,51.24
2019-05-18T08:05:02.865Z,50.98
2019-05-18T08:07:35.128Z,50.66
2019-05-18T08:10:10.704Z,50.89
2019-05-18T08:12:43.149Z,50.87
2019-05-18T08:15:29.925Z,50.94
2019-05-18T08:18:02.286Z,49.75
2019-05-18T08:20:35.747Z,49.94
2019-05-18T08:23:13.799Z,48.89
2019-05-18T08:25:45.850Z,49.73
2019-05-18T08:28:18.795Z,50.26
2019-05-18T08:30:56.784Z,50.15
2019-05-18T08:33:30.833Z,50.50
2019-05-18T08:36:03.871Z,50.49
2019-05-18T08:38:36.377Z,50.27
2019-05-18T08:41:21.252Z,50.54
2019-05-18T08:43:53.793Z,50.88
2019-05-18T08:46:26.824Z,51.14
2019-05-18T08:48:58.962Z,51.24
2019-05-18T08:51:42.499Z,51.50
2019-05-18T08:54:15.945Z,51.31
2019-05-18T08:56:48.680Z,51.32
2019-05-18T08:59:36.116Z,50.72
2019-05-18T09:02:15.841Z,50.92
2019-05-18T09:04:49.041Z,51.29
2019-05-18T09:07:21.864Z,51.41
2019-05-18T09:09:54.573Z,51.88
2019-05-18T09:12:33.476Z,51.67
2019-05-18T09:15:22.121Z,51.86
2019-05-18T09:17:55.302Z,52.27
2019-05-18T09:20:27.545Z,51.88
2019-05-18T09:23:00.442Z,51.95
2019-05-18T09:25:33.080Z,52.07
2019-05-18T09:28:06.820Z,52.44
2019-05-18T09:30:41.363Z,52.90
2019-05-18T09:33:14.130Z,52.12
2019-05-18T09:35:46.756Z,52.42
2019-05-18T09:38:19.696Z,52.93
2019-05-18T09:40:52.689Z,52.98
2019-05-18T09:43:25.732Z,53.02
2019-05-18T09:45:58.791Z,52.99
2019-05-18T09:48:31.205Z,53.19
2019-05-18T09:51:03.981Z,52.54
2019-05-18T09:53:49.456Z,52.78
2019-05-18T09:56:12.415Z,52.90
2019-05-18T09:58:45.043Z,52.66
2019-05-18T10:01:17.984Z,52.43
2019-05-18T10:03:50.601Z,52.67
2019-05-18T10:06:22.541Z,52.25
2019-05-18T10:09:02.111Z,52.48
2019-05-18T10:11:38.685Z,52.54
2019-05-18T10:14:10.137Z,52.12
2019-05-18T10:16:43.907Z,53.18
2019-05-18T10:19:16.253Z,52.50
2019-05-18T10:21:48.626Z,52.33
2019-05-18T10:24:20.710Z,52.61
2019-05-18T10:26:52.535Z,53.31
2019-05-18T10:29:26.070Z,53.78
2019-05-18T10:31:57.778Z,52.99
2019-05-18T10:34:29.261Z,52.91
2019-05-18T10:37:01.015Z,52.84
2019-05-18T10:39:32.942Z,53.15
2019-05-18T10:42:04.846Z,53.40
2019-05-18T10:44:42.792Z,53.09
2019-05-18T10:47:15.584Z,53.04
2019-05-18T10:49:49.119Z,53.02
2019-05-18T10:52:20.989Z,53.25
2019-05-18T10:54:53.512Z,53.20
2019-05-18T10:57:26.936Z,53.75
2019-05-18T11:00:05.876Z,53.49
2019-05-18T11:02:38.189Z,53.86
2019-05-18T11:05:10.377Z,53.66
2019-05-18T11:07:44.494Z,53.15
2019-05-18T11:10:16.678Z,53.74
2019-05-18T11:12:49.821Z,53.52
2019-05-18T11:15:21.950Z,53.08
2019-05-18T11:17:54.254Z,53.22
2019-05-18T11:20:38.771Z,53.33
2019-05-18T11:23:13.415Z,53.79
2019-05-18T11:25:45.229Z,52.29
2019-05-18T11:28:17.700Z,53.62
2019-05-18T11:30:49.362Z,54.88
2019-05-18T11:33:22.369Z,55.48
2019-05-18T11:35:56.703Z,55.41
2019-05-18T11:38:28.480Z,56.19
2019-05-18T11:41:01.483Z,56.30
2019-05-18T11:43:33.426Z,56.13
2019-05-18T11:46:05.196Z,56.44
2019-05-18T11:48:37.065Z,56.44
2019-05-18T11:51:09.543Z,56.55
2019-05-18T11:53:42.287Z,56.41
2019-05-18T11:56:14.223Z,56.89
2019-05-18T11:58:46.263Z,56.95
2019-05-18T12:01:22.219Z,56.67
2019-05-18T12:03:54.257Z,56.61
2019-05-18T12:06:27.131Z,57.09
2019-05-18T12:09:00.298Z,57.01
2019-05-18T12:11:34.769Z,57.51
2019-05-18T12:14:06.667Z,57.23
2019-05-18T12:16:38.239Z,57.35
2019-05-18T12:19:11.369Z,57.51
2019-05-18T12:21:43.065Z,58.05
2019-05-18T12:24:15.929Z,57.96
2019-05-18T12:26:49.971Z,58.06
2019-05-18T12:29:24.271Z,58.50
2019-05-18T12:31:56.340Z,58.84
2019-05-18T12:34:28.341Z,58.73
2019-05-18T12:37:20.511Z,58.05
2019-05-18T12:39:55.911Z,57.96
2019-05-18T12:42:28.931Z,58.57
2019-05-18T12:45:02.520Z,57.78
2019-05-18T12:47:34.387Z,58.12
2019-05-18T12:50:07.766Z,58.39
2019-05-18T12:52:41.238Z,58.37
2019-05-18T12:55:14.755Z,58.56
2019-05-18T12:57:47.256Z,58.93
2019-05-18T13:00:21.380Z,59.63
2019-05-18T13:02:54.632Z,59.63
2019-05-18T13:05:26.513Z,59.63
2019-05-18T13:08:04.950Z,60.01
2019-05-18T13:10:37.687Z,59.93
2019-05-18T13:13:10.088Z,59.27
2019-05-18T13:15:42.110Z,60.36
2019-05-18T13:18:16.113Z,59.87
2019-05-18T13:20:49.707Z,60.17
2019-05-18T13:23:23.405Z,59.80
2019-05-18T13:25:55.942Z,59.82
2019-05-18T13:28:28.440Z,60.67
2019-05-18T13:31:01.810Z,60.18
2019-05-18T13:33:34.861Z,60.01
2019-05-18T13:36:07.488Z,59.97
2019-05-18T13:38:40.297Z,61.34
2019-05-18T13:41:13.361Z,59.63
2019-05-18T13:43:46.130Z,59.65
2019-05-18T13:46:19.567Z,59.60
2019-05-18T13:48:53.075Z,59.39
2019-05-18T13:51:25.692Z,59.26
2019-05-18T13:53:58.318Z,59.69
2019-05-18T13:56:32.136Z,59.90
2019-05-18T13:59:04.929Z,59.71
2019-05-18T14:01:38.901Z,60.11
2019-05-18T14:04:11.231Z,59.03
2019-05-18T14:06:43.729Z,58.78
2019-05-18T14:09:17.341Z,59.56
2019-05-18T14:11:50.649Z,59.37
2019-05-18T14:14:23.265Z,59.50
2019-05-18T14:16:55.630Z,59.98
2019-05-18T14:19:39.707Z,60.37
2019-05-18T14:22:12.554Z,60.54
2019-05-18T14:24:44.807Z,60.92
2019-05-18T14:27:16.957Z,61.46
2019-05-18T14:29:50.187Z,62.00
2019-05-18T14:32:29.195Z,61.86
2019-05-18T14:35:02.257Z,61.25
2019-05-18T14:37:35.953Z,61.96
2019-05-18T14:40:10.602Z,62.39
2019-05-18T14:42:58.950Z,61.71
2019-05-18T14:45:47.113Z,61.83
2019-05-18T14:48:19.151Z,61.91
2019-05-18T14:50:53.897Z,61.37
2019-05-18T14:53:26.692Z,60.37
2019-05-18T14:55:59.982Z,60.45
2019-05-18T14:58:41.012Z,60.50
2019-05-18T15:01:16.389Z,60.90
2019-05-18T15:03:51.658Z,60.57
2019-05-18T15:06:31.261Z,61.67
2019-05-18T15:09:08.125Z,61.72
2019-05-18T15:11:41.038Z,62.02
2019-05-18T15:14:14.702Z,61.07
2019-05-18T15:16:53.029Z,61.87
2019-05-18T15:19:26.441Z,63.04
2019-05-18T15:21:58.723Z,62.88
2019-05-18T15:24:31.697Z,63.03
2019-05-18T15:27:14.180Z,63.43
2019-05-18T15:29:55.956Z,64.22
2019-05-18T15:32:42.240Z,63.55
2019-05-18T15:35:17.939Z,64.00
2019-05-18T15:37:50.406Z,64.73
2019-05-18T15:40:22.974Z,64.08
2019-05-18T15:43:10.981Z,64.01
2019-05-18T15:45:45.984Z,64.29
2019-05-18T15:51:10.528Z,65.35
2019-05-18T15:53:45.597Z,66.38
2019-05-18T15:56:18.134Z,67.07
2019-05-18T15:58:51.520Z,67.48
2019-05-18T16:01:24.722Z,67.75
2019-05-18T16:03:58.452Z,67.87
2019-05-18T16:06:31.476Z,67.51
2019-05-18T16:09:05.082Z,67.49
2019-05-18T16:11:37.222Z,68.24
2019-05-18T16:14:10.158Z,69.56
2019-05-18T16:16:43.087Z,68.54
2019-05-18T16:19:16.203Z,68.12
2019-05-18T16:21:57.860Z,68.33
2019-05-18T16:24:29.135Z,67.86
2019-05-18T16:27:02.072Z,68.69
2019-05-18T16:29:35.647Z,67.86
2019-05-18T16:32:12.840Z,68.08
2019-05-18T16:34:52.076Z,68.75
2019-05-18T16:37:30.273Z,68.24
2019-05-18T16:40:09.220Z,68.19
2019-05-18T16:42:48.911Z,68.12
2019-05-18T16:45:22.355Z,68.57
2019-05-18T16:47:59.765Z,69.31
2019-05-18T16:50:38.590Z,68.60
2019-05-18T16:53:13.434Z,69.56
2019-05-18T16:55:46.361Z,69.48
2019-05-18T16:58:26.751Z,68.96
2019-05-18T17:04:00.703Z,69.24
2019-05-18T17:06:35.779Z,69.29
2019-05-18T17:09:10.406Z,69.55
2019-05-18T17:11:43.451Z,69.43
2019-05-18T17:14:23.848Z,70.13
2019-05-18T17:17:02.530Z,69.36
2019-05-18T17:19:36.272Z,69.12
2019-05-18T17:22:30.274Z,68.61
2019-05-18T17:25:07.603Z,69.31
2019-05-18T17:27:52.279Z,69.51
2019-05-18T17:30:25.159Z,69.24
2019-05-18T17:32:58.547Z,69.43
2019-05-18T17:35:32.604Z,70.71
2019-05-18T17:38:05.557Z,70.81
2019-05-18T17:43:30.616Z,70.71
2019-05-18T17:46:03.620Z,71.19
2019-05-18T17:48:36.567Z,70.99
2019-05-18T17:51:10.327Z,71.13
2019-05-18T17:53:47.211Z,72.78
2019-05-18T17:56:20.597Z,70.91
2019-05-18T17:58:53.755Z,71.83
2019-05-18T18:01:26.465Z,72.44
2019-05-18T18:04:03.388Z,71.29
2019-05-18T18:06:36.982Z,71.84
2019-05-18T18:09:10.686Z,71.40
2019-05-18T18:11:43.672Z,72.38
2019-05-18T18:14:16.826Z,72.01
2019-05-18T18:16:50.036Z,72.88
2019-05-18T18:19:23.648Z,72.99
2019-05-18T18:21:56.216Z,73.22
2019-05-18T18:24:28.829Z,72.58
2019-05-18T18:27:02.258Z,72.29
2019-05-18T18:29:35.212Z,72.21
2019-05-18T18:32:07.760Z,72.69
2019-05-18T18:34:40.833Z,72.18
2019-05-18T18:37:14.768Z,72.64
2019-05-18T18:39:54.842Z,73.36
2019-05-18T18:42:27.957Z,73.87
2019-05-18T18:45:01.060Z,74.32
2019-05-18T18:47:38.731Z,74.16
2019-05-18T18:50:13.372Z,73.26
2019-05-18T18:52:53.004Z,73.21
2019-05-18T18:55:26.386Z,73.19
2019-05-18T18:57:59.822Z,73.64
2019-05-18T19:00:33.103Z,72.87
2019-05-18T19:03:06.585Z,73.06
2019-05-18T19:05:39.619Z,74.23
2019-05-18T19:08:12.940Z,71.96
2019-05-18T19:10:45.578Z,73.48
2019-05-18T19:13:23.348Z,73.08
2019-05-18T19:15:59.089Z,74.01
2019-05-18T19:18:32.076Z,74.24
2019-05-18T19:21:05.992Z,72.60
2019-05-18T19:23:39.146Z,73.33
2019-05-18T19:26:18.843Z,73.93
2019-05-18T19:28:51.932Z,73.75
2019-05-18T19:31:24.796Z,75.00
2019-05-18T19:33:58.104Z,73.22
2019-05-18T19:36:30.559Z,74.59
2019-05-18T19:39:03.495Z,72.88
2019-05-18T19:41:36.483Z,72.41
2019-05-18T19:44:08.963Z,74.01
2019-05-18T19:46:42.100Z,70.60
2019-05-18T19:49:24.831Z,74.96
2019-05-18T19:52:00.833Z,73.03
2019-05-18T19:54:34.443Z,71.67
2019-05-18T19:57:07.207Z,70.68
2019-05-18T19:59:45.913Z,69.29
2019-05-18T20:02:19.415Z,72.37
2019-05-18T20:05:06.793Z,73.25
2019-05-18T20:07:34.084Z,74.36
